Weather History for Fosston, MN

Change the Weather History Date:

Monday, January 27, 2014

  Actual Average Record
Temperature  
Mean Temperature -20 °F -  
Max Temperature -11 °F 13 °F 42 °F (2006)
Min Temperature -29 °F -9 °F -31 °F (1966)
Degree Days  
Heating Degree Days 85    
Moisture  
Dew Point -28 °F    
Average Humidity 68    
Maximum Humidity 83    
Minimum Humidity 49    
Precipitation  
Precipitation 0.00 in - - ()
Sea Level Pressure  
Sea Level Pressure 30.29 in    
Wind  
Wind Speed 10 mph (West)    
Max Wind Speed 15 mph    
Max Gust Speed 20 mph    
Visibility 9 miles    
Events      
Averages and records for this station are not official NWS values.
T = Trace of Precipitation, MM = Missing Value Source: NWS Daily Summary

Daily Weather History Graph

Daily Weather History Graph

Search for Another Location

Airport:

Trip Planner

Search our weather history database for the weather conditions in past years. The results will help you decide how hot, cold, wet, or windy it might be!

Date:

Astronomy

Jan. 27, 2014 Rise Set
Actual Time 7:55 AM CST 5:16 PM CST
Civil Twilight 7:22 AM CST 5:50 PM CST
Nautical Twilight 6:44 AM CST 6:27 PM CST
Astronomical Twilight 6:08 AM CST 7:03 PM CST
Moon 4:41 AM CST (1/27) 2:00 PM CST (1/27)
Length of Visible Light 10h 28m
Length of Day
9h 21m
Waning Crescent, 14% of the Moon is Illuminated
Jan 27
Waning Crescent
Jan 30
New
Feb 6
First Quarter
Feb 14
Full
Feb 22
Last Quarter

Hourly Weather History & Observations

Time (CST) Temp. Windchill Dew Point Humidity Pressure Visibility Wind Dir Wind Speed Gust Speed Precip Events Conditions
12:15 AM -20.2 °F -45.2 °F -25.6 °F 76% 30.15 in 5.0 mi NW 15.0 mph - N/A   Haze
12:35 AM -20.2 °F -44.4 °F -25.6 °F 76% 30.16 in 7.0 mi WNW 13.8 mph 19.6 mph N/A   Overcast
12:55 AM -20.2 °F -43.4 °F -27.4 °F 69% 30.16 in 7.0 mi WNW 12.7 mph 17.3 mph N/A   Scattered Clouds
1:15 AM -20.2 °F -42.4 °F -27.4 °F 69% 30.17 in 10.0 mi WNW 11.5 mph 17.3 mph N/A   Clear
1:35 AM -20.2 °F -42.4 °F -27.4 °F 69% 30.17 in 10.0 mi WNW 11.5 mph - N/A   Clear
1:56 AM -20.2 °F -43.4 °F -27.4 °F 69% 30.18 in 10.0 mi WNW 12.7 mph - N/A   Scattered Clouds
2:15 AM -20.2 °F -41.3 °F -27.4 °F 69% 30.19 in 5.0 mi WNW 10.4 mph - N/A   Haze
2:35 AM -22.0 °F -43.6 °F -27.4 °F 76% 30.20 in 5.0 mi WNW 10.4 mph - N/A   Haze
2:56 AM -22.0 °F -42.3 °F -27.4 °F 76% 30.22 in 5.0 mi WNW 9.2 mph - N/A   Haze
3:15 AM -22.0 °F -43.6 °F -27.4 °F 76% 30.23 in 7.0 mi WNW 10.4 mph - N/A   Clear
3:35 AM -23.8 °F -45.8 °F -27.4 °F 83% 30.23 in 10.0 mi WNW 10.4 mph - N/A   Clear
3:55 AM -23.8 °F -45.8 °F -27.4 °F 83% 30.24 in 10.0 mi WNW 10.4 mph - N/A   Clear
4:15 AM -23.8 °F -44.5 °F -29.2 °F 76% 30.25 in 10.0 mi WNW 9.2 mph - N/A   Clear
4:35 AM -23.8 °F -45.8 °F -29.2 °F 76% 30.26 in 10.0 mi NW 10.4 mph - N/A   Clear
4:55 AM -23.8 °F -43.2 °F -29.2 °F 76% 30.27 in 10.0 mi WNW 8.1 mph - N/A   Clear
5:15 AM -23.8 °F -43.2 °F -29.2 °F 76% 30.28 in 10.0 mi WNW 8.1 mph - N/A   Clear
5:35 AM -23.8 °F -44.5 °F -29.2 °F 76% 30.28 in 10.0 mi WNW 9.2 mph - N/A   Clear
5:55 AM -23.8 °F -46.9 °F -29.2 °F 76% 30.28 in 10.0 mi NW 11.5 mph - N/A   Clear
6:15 AM -23.8 °F -44.5 °F -29.2 °F 76% 30.29 in 10.0 mi WNW 9.2 mph - N/A   Clear
6:35 AM -23.8 °F -45.8 °F -29.2 °F 76% 30.29 in 10.0 mi WNW 10.4 mph - N/A   Clear
6:55 AM -23.8 °F -45.8 °F -29.2 °F 76% 30.29 in 10.0 mi WNW 10.4 mph - N/A   Clear
7:15 AM -23.8 °F -45.8 °F -29.2 °F 76% 30.30 in 10.0 mi WNW 10.4 mph - N/A   Clear
7:35 AM -25.6 °F -48.0 °F -31.0 °F 76% 30.30 in 7.0 mi WNW 10.4 mph - N/A   Clear
7:55 AM -25.6 °F -45.4 °F -31.0 °F 76% 30.31 in 10.0 mi WNW 8.1 mph - N/A   Clear
8:15 AM -25.6 °F -45.4 °F -32.8 °F 69% 30.32 in 7.0 mi WNW 8.1 mph - N/A   Clear
8:36 AM -25.6 °F -43.8 °F -31.0 °F 76% 30.32 in 4.0 mi WNW 6.9 mph - N/A   Haze
8:55 AM -23.8 °F -39.8 °F -29.2 °F 76% 30.32 in 4.0 mi WNW 5.8 mph - N/A   Haze
9:15 AM -22.0 °F -41.0 °F -29.2 °F 69% 30.33 in 10.0 mi WNW 8.1 mph - N/A   Clear
9:36 AM -20.2 °F -38.8 °F -27.4 °F 69% 30.33 in 10.0 mi West 8.1 mph - N/A   Clear
9:55 AM -18.4 °F -37.9 °F -27.4 °F 63% 30.34 in 10.0 mi West 9.2 mph - N/A   Clear
10:15 AM -18.4 °F -39.1 °F -27.4 °F 63% 30.35 in 10.0 mi West 10.4 mph - N/A   Clear
10:36 AM -18.4 °F -40.2 °F -27.4 °F 63% 30.35 in 10.0 mi West 11.5 mph - N/A   Clear
10:55 AM -16.6 °F -37.9 °F -27.4 °F 58% 30.36 in 10.0 mi West 11.5 mph - N/A   Clear
11:15 AM -16.6 °F -37.9 °F -25.6 °F 64% 30.36 in 10.0 mi West 11.5 mph - N/A   Clear
11:36 AM -16.6 °F -37.9 °F -25.6 °F 64% 30.36 in 10.0 mi West 11.5 mph - N/A   Clear
11:55 AM -14.8 °F -36.6 °F -25.6 °F 58% 30.35 in 10.0 mi West 12.7 mph - N/A   Clear
12:15 PM -14.8 °F -37.5 °F -25.6 °F 58% 30.35 in 10.0 mi West 13.8 mph - N/A   Scattered Clouds
12:35 PM -14.8 °F -35.6 °F -25.6 °F 58% 30.35 in 10.0 mi West 11.5 mph - N/A   Scattered Clouds
12:55 PM -13.0 °F -35.2 °F -25.6 °F 53% 30.34 in 10.0 mi West 13.8 mph - N/A   Clear
1:15 PM -13.0 °F -34.3 °F -25.6 °F 53% 30.33 in 10.0 mi West 12.7 mph - N/A   Clear
1:35 PM -11.2 °F -30.1 °F -23.8 °F 54% 30.33 in 10.0 mi West 10.4 mph - N/A   Clear
1:56 PM -11.2 °F -32.1 °F -25.6 °F 49% 30.33 in 10.0 mi West 12.7 mph - N/A   Clear
2:15 PM -11.2 °F -30.1 °F -25.6 °F 49% 30.32 in 10.0 mi West 10.4 mph - N/A   Clear
2:35 PM -11.2 °F -30.1 °F -23.8 °F 54% 30.32 in 10.0 mi West 10.4 mph - N/A   Clear
2:56 PM -11.2 °F -29.0 °F -23.8 °F 54% 30.32 in 10.0 mi WSW 9.2 mph - N/A   Clear
3:15 PM -11.2 °F -31.1 °F -23.8 °F 54% 30.32 in 7.0 mi WSW 11.5 mph - N/A   Clear
3:35 PM -11.2 °F -32.1 °F -23.8 °F 54% 30.32 in 7.0 mi WSW 12.7 mph - N/A   Clear
3:56 PM -13.0 °F -32.4 °F -23.8 °F 59% 30.32 in 10.0 mi WSW 10.4 mph - N/A   Clear
4:15 PM -14.8 °F -33.5 °F -23.8 °F 64% 30.33 in 10.0 mi WSW 9.2 mph - N/A   Clear
4:35 PM -14.8 °F -32.2 °F -23.8 °F 64% 30.32 in 10.0 mi WSW 8.1 mph - N/A   Clear
4:55 PM -16.6 °F -32.9 °F -23.8 °F 70% 30.32 in 10.0 mi WSW 6.9 mph - N/A   Clear
5:15 PM -16.6 °F -31.3 °F -25.6 °F 64% 30.32 in 10.0 mi WSW 5.8 mph - N/A   Clear
5:35 PM -18.4 °F -31.4 °F -25.6 °F 70% 30.32 in 10.0 mi SW 4.6 mph - N/A   Clear
5:56 PM -20.2 °F -33.5 °F -27.4 °F 69% 30.32 in 10.0 mi SW 4.6 mph - N/A   Clear
6:15 PM -20.2 °F -37.3 °F -27.4 °F 69% 30.32 in 10.0 mi SW 6.9 mph - N/A   Clear
6:35 PM -22.0 °F -37.7 °F -29.2 °F 69% 30.32 in 10.0 mi SW 5.8 mph - N/A   Clear
6:55 PM -22.0 °F -37.7 °F -29.2 °F 69% 30.32 in 10.0 mi SW 5.8 mph - N/A   Clear
7:15 PM -23.8 °F -39.8 °F -32.8 °F 63% 30.32 in 10.0 mi SW 5.8 mph - N/A   Clear
7:35 PM -23.8 °F -37.7 °F -29.2 °F 76% 30.31 in 10.0 mi SW 4.6 mph - N/A   Clear
7:55 PM -23.8 °F -39.8 °F -32.8 °F 63% 30.31 in 10.0 mi SW 5.8 mph - N/A   Clear
8:15 PM -23.8 °F -39.8 °F -31.0 °F 69% 30.30 in 10.0 mi SW 5.8 mph - N/A   Clear
8:35 PM -23.8 °F -39.8 °F -32.8 °F 63% 30.30 in 10.0 mi SSW 5.8 mph - N/A   Clear
8:55 PM -25.6 °F -41.9 °F -32.8 °F 69% 30.30 in 10.0 mi SSW 5.8 mph - N/A   Clear
9:15 PM -25.6 °F -41.9 °F -31.0 °F 76% 30.29 in 10.0 mi SSW 5.8 mph - N/A   Clear
9:36 PM -25.6 °F -41.9 °F -31.0 °F 76% 30.29 in 10.0 mi SSW 5.8 mph - N/A   Clear
9:55 PM -27.4 °F -45.9 °F -32.8 °F 75% 30.28 in 10.0 mi SSW 6.9 mph - N/A   Clear
10:15 PM -25.6 °F -41.9 °F -32.8 °F 69% 30.28 in 5.0 mi SW 5.8 mph - N/A   Haze
10:36 PM -25.6 °F -41.9 °F -32.8 °F 69% 30.28 in 10.0 mi SW 5.8 mph - N/A   Clear
10:55 PM -27.4 °F -41.9 °F -34.6 °F 69% 30.28 in 10.0 mi SSW 4.6 mph - N/A   Clear
11:16 PM -27.4 °F -41.9 °F -34.6 °F 69% 30.27 in 10.0 mi SSW 4.6 mph - N/A   Clear
11:35 PM -29.2 °F -46.2 °F -34.6 °F 75% 30.27 in 10.0 mi SSW 5.8 mph - N/A   Clear
11:55 PM -29.2 °F -46.2 °F -34.6 °F 75% 30.27 in 10.0 mi SSW 5.8 mph - N/A   Clear